Conover, North Carolina
Current Conditions -  °F | °C
As of 5:53 AM on Friday 28 Nov 2014 (Local Time) from KHKY Reporting Station
Clear Clear  
Wind Chill: 20°   Ceiling: Unl
Heat Index: 27°   Visibility: 10mi
Dew Point: 17°   Wind: 6mph
Humidity: 66%   Direction: 270°W
Pressure: 30.31"   Gusts: NA
Location:  35.71°N, 81.22°W
Report Text: KHKY 281053Z AUTO 27005KT 10SM CLR M03/M08 A3031 RMK AO2 SLP264 T10281083
Loading
Personal Weather Stations






























Interactive Weather Map New forecast layout! Learn more

10-Day Weather Forecast

Advertisements
Track Severe Weather on mobile